Station Historical Data
Daily Summary for February 5, 2018 Units:  English    Metric   Both
« Previous Day
Next Day »
Daily Weekly Monthly Yearly Custom
  High: Low: Average:
Temperature: 20.4 °F 10.6 °F 16.1 °F
Dew Point: 17.4 °F 4.6 °F 9.8 °F
Humidity: 88% 69% 76%
Wind Speed: 17.0mph 1.0mph 6.1mph
Wind Gust: 23.0mph - -
Wind- - WSW
Pressure: 30.27 in 29.86 in -
Precipitation: 0.00 in    
Historical Graphs
 
 
Tabular Data for February 5, 2018
Time Temperature Dew Point Pressure Wind Wind Speed Wind Gust Humidity Rainfall Rate (Hourly)
00:04 20.4 °F 17.4 °F 29.86 in NW 6.0 mph 16.0 mph 88% 0.00 in
00:09 20.2 °F 17.0 °F 29.86 in NW 6.0 mph 16.0 mph 87% 0.00 in
00:14 20.1 °F 16.9 °F 29.87 in NNW 6.0 mph 13.0 mph 87% 0.00 in
00:19 19.9 °F 16.7 °F 29.87 in WNW 2.0 mph 11.0 mph 87% 0.00 in
00:24 19.7 °F 16.5 °F 29.88 in NW 5.0 mph 11.0 mph 87% 0.00 in
00:29 19.6 °F 16.4 °F 29.88 in NNW 13.0 mph 13.0 mph 87% 0.00 in
00:34 19.5 °F 16.3 °F 29.89 in NW 5.0 mph 11.0 mph 87% 0.00 in
00:39 19.4 °F 16.2 °F 29.89 in NW 2.0 mph 12.0 mph 87% 0.00 in
00:44 19.3 °F 16.1 °F 29.90 in WNW 8.0 mph 11.0 mph 87% 0.00 in
00:49 19.2 °F 16.0 °F 29.91 in WNW 4.0 mph 11.0 mph 87% 0.00 in
00:54 19.1 °F 15.9 °F 29.91 in NW 5.0 mph 11.0 mph 87% 0.00 in
00:59 19.1 °F 15.9 °F 29.92 in NW 5.0 mph 10.0 mph 87% 0.00 in
01:04 18.9 °F 15.7 °F 29.92 in NW 4.0 mph 9.0 mph 87% 0.00 in
01:09 18.9 °F 15.7 °F 29.92 in NW 4.0 mph 9.0 mph 87% 0.00 in
01:14 18.8 °F 15.6 °F 29.92 in NW 3.0 mph 9.0 mph 87% 0.00 in
01:19 18.8 °F 15.6 °F 29.92 in NNW 4.0 mph 9.0 mph 87% 0.00 in
01:24 18.7 °F 15.5 °F 29.93 in NW 4.0 mph 8.0 mph 87% 0.00 in
01:29 18.6 °F 15.4 °F 29.93 in NW 5.0 mph 10.0 mph 87% 0.00 in
01:34 18.5 °F 15.3 °F 29.94 in NW 6.0 mph 10.0 mph 87% 0.00 in
01:39 18.3 °F 15.1 °F 29.94 in NNW 5.0 mph 9.0 mph 87% 0.00 in
01:44 18.0 °F 14.8 °F 29.94 in WNW 6.0 mph 11.0 mph 87% 0.00 in
01:49 17.9 °F 14.7 °F 29.95 in WNW 8.0 mph 14.0 mph 87% 0.00 in
01:54 17.8 °F 14.6 °F 29.95 in WNW 3.0 mph 14.0 mph 87% 0.00 in
01:59 17.7 °F 14.5 °F 29.95 in NW 6.0 mph 14.0 mph 87% 0.00 in
02:04 17.7 °F 14.5 °F 29.96 in NW 5.0 mph 12.0 mph 87% 0.00 in
02:09 17.7 °F 14.5 °F 29.95 in NW 4.0 mph 9.0 mph 87% 0.00 in
02:14 17.7 °F 14.5 °F 29.96 in NW 4.0 mph 9.0 mph 87% 0.00 in
02:19 17.7 °F 14.5 °F 29.96 in WNW 4.0 mph 12.0 mph 87% 0.00 in
02:24 17.7 °F 14.5 °F 29.97 in NW 5.0 mph 12.0 mph 87% 0.00 in
02:29 17.7 °F 14.5 °F 29.97 in NW 4.0 mph 11.0 mph 87% 0.00 in
02:34 17.7 °F 14.5 °F 29.97 in WSW 11.0 mph 15.0 mph 87% 0.00 in
02:39 17.3 °F 13.8 °F 29.98 in NW 10.0 mph 16.0 mph 86% 0.00 in
02:44 17.1 °F 13.9 °F 29.98 in WNW 6.0 mph 11.0 mph 87% 0.00 in
02:49 17.1 °F 13.9 °F 29.98 in West 10.0 mph 15.0 mph 87% 0.00 in
02:54 17.0 °F 13.8 °F 29.98 in WNW 7.0 mph 13.0 mph 87% 0.00 in
02:59 16.9 °F 13.7 °F 29.99 in West 2.0 mph 8.0 mph 87% 0.00 in
03:04 16.8 °F 13.6 °F 29.99 in West 5.0 mph 17.0 mph 87% 0.00 in
03:09 16.7 °F 13.2 °F 30.00 in West 6.0 mph 17.0 mph 86% 0.00 in
03:15 16.4 °F 12.9 °F 30.00 in WNW 6.0 mph 14.0 mph 86% 0.00 in
03:19 16.2 °F 12.7 °F 30.00 in West 6.0 mph 14.0 mph 86% 0.00 in
03:24 16.0 °F 12.6 °F 30.00 in West 6.0 mph 12.0 mph 86% 0.00 in
03:29 15.7 °F 12.0 °F 30.00 in NW 4.0 mph 12.0 mph 85% 0.00 in
03:34 15.5 °F 11.8 °F 30.00 in WNW 6.0 mph 12.0 mph 85% 0.00 in
03:39 15.4 °F 11.2 °F 30.00 in WNW 7.0 mph 13.0 mph 83% 0.00 in
03:44 15.2 °F 10.7 °F 30.01 in NW 6.0 mph 11.0 mph 82% 0.00 in
03:50 14.9 °F 9.8 °F 30.01 in WNW 6.0 mph 14.0 mph 80% 0.00 in
03:55 14.6 °F 9.3 °F 30.01 in WNW 5.0 mph 15.0 mph 79% 0.00 in
04:04 14.3 °F 8.7 °F 30.02 in WNW 6.0 mph 14.0 mph 78% 0.00 in
04:09 14.1 °F 8.2 °F 30.02 in WNW 5.0 mph 11.0 mph 77% 0.00 in
04:14 13.9 °F 8.0 °F 30.03 in WNW 4.0 mph 10.0 mph 77% 0.00 in
04:19 13.7 °F 7.8 °F 30.03 in WNW 4.0 mph 11.0 mph 77% 0.00 in
04:25 13.6 °F 7.7 °F 30.04 in WNW 4.0 mph 11.0 mph 77% 0.00 in
04:30 13.5 °F 7.6 °F 30.04 in WNW 5.0 mph 10.0 mph 77% 0.00 in
04:39 13.4 °F 7.5 °F 30.05 in WNW 5.0 mph 13.0 mph 77% 0.00 in
04:44 13.3 °F 7.4 °F 30.05 in West 7.0 mph 11.0 mph 77% 0.00 in
04:49 13.2 °F 7.3 °F 30.06 in WNW 6.0 mph 13.0 mph 77% 0.00 in
04:54 13.0 °F 7.1 °F 30.06 in NW 3.0 mph 11.0 mph 77% 0.00 in
04:59 12.9 °F 6.8 °F 30.07 in West 3.0 mph 11.0 mph 76% 0.00 in
05:04 12.9 °F 7.0 °F 30.07 in WNW 5.0 mph 10.0 mph 77% 0.00 in
05:09 12.9 °F 7.0 °F 30.08 in WSW 8.0 mph 10.0 mph 77% 0.00 in
05:14 13.1 °F 7.2 °F 30.08 in WNW 6.0 mph 12.0 mph 77% 0.00 in
05:19 13.2 °F 7.3 °F 30.09 in WNW 6.0 mph 12.0 mph 77% 0.00 in
05:24 13.4 °F 7.5 °F 30.09 in West 5.0 mph 12.0 mph 77% 0.00 in
05:29 13.4 °F 7.2 °F 30.09 in WNW 5.0 mph 10.0 mph 76% 0.00 in
05:34 13.3 °F 7.4 °F 30.10 in West 5.0 mph 10.0 mph 77% 0.00 in
05:39 13.3 °F 7.4 °F 30.10 in West 8.0 mph 11.0 mph 77% 0.00 in
05:44 13.4 °F 7.5 °F 30.11 in WNW 6.0 mph 13.0 mph 77% 0.00 in
05:49 13.5 °F 7.6 °F 30.11 in WNW 6.0 mph 13.0 mph 77% 0.00 in
05:54 13.5 °F 7.3 °F 30.11 in West 6.0 mph 16.0 mph 76% 0.00 in
05:59 13.4 °F 7.2 °F 30.12 in West 5.0 mph 16.0 mph 76% 0.00 in
06:04 13.3 °F 7.1 °F 30.12 in WNW 6.0 mph 10.0 mph 76% 0.00 in
06:09 13.1 °F 7.0 °F 30.13 in West 6.0 mph 8.0 mph 76% 0.00 in
06:14 13.0 °F 6.9 °F 30.13 in WNW 4.0 mph 9.0 mph 76% 0.00 in
06:19 12.8 °F 6.7 °F 30.13 in West 5.0 mph 10.0 mph 76% 0.00 in
06:24 12.7 °F 6.6 °F 30.14 in West 5.0 mph 8.0 mph 76% 0.00 in
06:29 12.5 °F 6.4 °F 30.14 in WNW 4.0 mph 11.0 mph 76% 0.00 in
06:34 12.4 °F 6.3 °F 30.14 in West 3.0 mph 10.0 mph 76% 0.00 in
06:39 12.2 °F 6.1 °F 30.14 in West 2.0 mph 7.0 mph 76% 0.00 in
06:44 12.0 °F 5.9 °F 30.14 in WNW 3.0 mph 8.0 mph 76% 0.00 in
06:49 11.6 °F 5.5 °F 30.15 in West 3.0 mph 8.0 mph 76% 0.00 in
06:54 11.2 °F 5.1 °F 30.15 in West 3.0 mph 6.0 mph 76% 0.00 in
06:59 11.0 °F 4.9 °F 30.16 in WSW 3.0 mph 5.0 mph 76% 0.00 in
07:04 10.8 °F 4.7 °F 30.16 in SW 3.0 mph 6.0 mph 76% 0.00 in
07:09 10.7 °F 4.6 °F 30.16 in WSW 3.0 mph 4.0 mph 76% 0.00 in
07:14 10.6 °F 4.8 °F 30.16 in WSW 3.0 mph 6.0 mph 77% 0.00 in
07:19 10.6 °F 4.8 °F 30.17 in WSW 3.0 mph 6.0 mph 77% 0.00 in
07:24 10.8 °F 5.0 °F 30.17 in WSW 2.0 mph 6.0 mph 77% 0.00 in
07:29 11.0 °F 5.2 °F 30.17 in SW 5.0 mph 6.0 mph 77% 0.00 in
07:34 11.4 °F 5.6 °F 30.17 in WSW 2.0 mph 7.0 mph 77% 0.00 in
07:39 11.5 °F 5.7 °F 30.17 in WSW 7.0 mph 7.0 mph 77% 0.00 in
07:44 11.8 °F 5.7 °F 30.18 in West 4.0 mph 8.0 mph 76% 0.00 in
07:49 11.9 °F 5.8 °F 30.18 in WNW 7.0 mph 9.0 mph 76% 0.00 in
07:54 12.1 °F 6.0 °F 30.18 in WSW 3.0 mph 9.0 mph 76% 0.00 in
07:59 12.3 °F 6.2 °F 30.18 in WSW 4.0 mph 9.0 mph 76% 0.00 in
08:04 12.4 °F 6.3 °F 30.19 in WSW 4.0 mph 7.0 mph 76% 0.00 in
08:09 12.6 °F 6.2 °F 30.19 in WSW 4.0 mph 9.0 mph 75% 0.00 in
08:14 12.8 °F 6.4 °F 30.19 in West 4.0 mph 9.0 mph 75% 0.00 in
08:19 12.9 °F 6.5 °F 30.20 in West 3.0 mph 7.0 mph 75% 0.00 in
08:24 13.0 °F 6.6 °F 30.20 in WSW 3.0 mph 6.0 mph 75% 0.00 in
08:29 13.1 °F 6.7 °F 30.20 in WSW 3.0 mph 7.0 mph 75% 0.00 in
08:34 13.2 °F 6.8 °F 30.20 in West 1.0 mph 8.0 mph 75% 0.00 in
08:39 13.4 °F 7.0 °F 30.21 in West 3.0 mph 7.0 mph 75% 0.00 in
08:44 13.6 °F 6.8 °F 30.21 in WSW 3.0 mph 7.0 mph 74% 0.00 in
08:49 13.8 °F 7.0 °F 30.21 in West 1.0 mph 7.0 mph 74% 0.00 in
08:54 13.8 °F 7.0 °F 30.21 in West 5.0 mph 8.0 mph 74% 0.00 in
08:59 13.9 °F 6.8 °F 30.21 in WSW 5.0 mph 8.0 mph 73% 0.00 in
09:04 14.1 °F 7.0 °F 30.21 in WSW 5.0 mph 10.0 mph 73% 0.00 in
09:09 14.3 °F 7.2 °F 30.21 in West 5.0 mph 10.0 mph 73% 0.00 in
09:14 14.6 °F 7.5 °F 30.22 in West 4.0 mph 9.0 mph 73% 0.00 in
09:19 14.8 °F 7.7 °F 30.22 in West 4.0 mph 9.0 mph 73% 0.00 in
09:24 14.8 °F 7.7 °F 30.23 in West 5.0 mph 11.0 mph 73% 0.00 in
09:29 14.9 °F 7.8 °F 30.24 in West 2.0 mph 10.0 mph 73% 0.00 in
09:34 15.0 °F 7.9 °F 30.24 in West 5.0 mph 10.0 mph 73% 0.00 in
09:39 15.2 °F 8.1 °F 30.24 in West 4.0 mph 9.0 mph 73% 0.00 in
09:44 15.3 °F 8.5 °F 30.25 in West 5.0 mph 11.0 mph 74% 0.00 in
09:49 15.4 °F 8.3 °F 30.24 in West 2.0 mph 10.0 mph 73% 0.00 in
09:54 15.6 °F 8.5 °F 30.24 in West 8.0 mph 9.0 mph 73% 0.00 in
09:59 15.8 °F 8.4 °F 30.24 in WNW 2.0 mph 9.0 mph 72% 0.00 in
10:04 15.9 °F 8.2 °F 30.24 in WNW 5.0 mph 9.0 mph 71% 0.00 in
10:09 15.9 °F 8.2 °F 30.24 in WNW 5.0 mph 9.0 mph 71% 0.00 in
10:14 15.8 °F 8.1 °F 30.24 in West 5.0 mph 10.0 mph 71% 0.00 in
10:19 15.8 °F 8.1 °F 30.25 in West 5.0 mph 10.0 mph 71% 0.00 in
10:24 15.9 °F 8.2 °F 30.25 in West 4.0 mph 9.0 mph 71% 0.00 in
10:29 16.4 °F 8.9 °F 30.25 in SSW 6.0 mph 9.0 mph 72% 0.00 in
10:34 16.9 °F 9.4 °F 30.25 in West 4.0 mph 8.0 mph 72% 0.00 in
10:39 16.9 °F 9.1 °F 30.25 in West 5.0 mph 12.0 mph 71% 0.00 in
10:44 16.9 °F 9.1 °F 30.25 in West 6.0 mph 14.0 mph 71% 0.00 in
10:49 17.5 °F 9.7 °F 30.26 in West 5.0 mph 14.0 mph 71% 0.00 in
10:54 18.0 °F 9.9 °F 30.26 in WSW 5.0 mph 14.0 mph 70% 0.00 in
10:59 17.9 °F 10.1 °F 30.26 in WSW 5.0 mph 11.0 mph 71% 0.00 in
11:04 18.5 °F 10.7 °F 30.27 in SW 3.0 mph 13.0 mph 71% 0.00 in
11:09 18.2 °F 10.1 °F 30.27 in SW 8.0 mph 16.0 mph 70% 0.00 in
11:14 17.7 °F 9.9 °F 30.27 in SW 9.0 mph 16.0 mph 71% 0.00 in
11:19 17.8 °F 10.0 °F 30.27 in SSW 6.0 mph 11.0 mph 71% 0.00 in
11:24 17.9 °F 10.4 °F 30.26 in SW 9.0 mph 13.0 mph 72% 0.00 in
11:29 18.0 °F 10.5 °F 30.27 in SSW 7.0 mph 19.0 mph 72% 0.00 in
11:34 18.0 °F 10.2 °F 30.27 in SW 5.0 mph 15.0 mph 71% 0.00 in
11:39 17.7 °F 9.9 °F 30.27 in West 10.0 mph 15.0 mph 71% 0.00 in
11:44 18.5 °F 10.7 °F 30.27 in WSW 7.0 mph 15.0 mph 71% 0.00 in
11:49 18.1 °F 10.0 °F 30.26 in SW 10.0 mph 15.0 mph 70% 0.00 in
11:54 17.9 °F 9.4 °F 30.27 in WSW 9.0 mph 19.0 mph 69% 0.01 in
11:59 17.6 °F 10.1 °F 30.27 in WSW 9.0 mph 19.0 mph 72% 0.01 in
12:04 17.0 °F 9.5 °F 30.26 in WSW 8.0 mph 16.0 mph 72% 0.01 in
12:09 17.2 °F 9.7 °F 30.25 in WSW 8.0 mph 17.0 mph 72% 0.02 in
12:14 17.0 °F 9.2 °F 30.24 in WSW 11.0 mph 16.0 mph 71% 0.02 in
12:19 16.8 °F 9.0 °F 30.24 in West 11.0 mph 19.0 mph 71% 0.02 in
12:24 16.6 °F 8.8 °F 30.24 in WSW 12.0 mph 19.0 mph 71% 0.02 in
12:29 16.5 °F 9.0 °F 30.24 in West 13.0 mph 20.0 mph 72% 0.02 in
12:34 16.4 °F 8.9 °F 30.24 in SW 12.0 mph 22.0 mph 72% 0.02 in
12:39 16.6 °F 9.1 °F 30.23 in WSW 7.0 mph 17.0 mph 72% 0.02 in
12:44 16.3 °F 8.9 °F 30.24 in WSW 9.0 mph 20.0 mph 72% 0.02 in
12:49 16.3 °F 8.9 °F 30.23 in WSW 10.0 mph 20.0 mph 72% 0.02 in
12:54 16.2 °F 8.4 °F 30.24 in WSW 11.0 mph 21.0 mph 71% 0.01 in
12:59 16.5 °F 8.4 °F 30.24 in SW 11.0 mph 21.0 mph 70% 0.01 in
13:04 16.8 °F 8.7 °F 30.23 in SW 9.0 mph 18.0 mph 70% 0.01 in
13:09 16.8 °F 8.4 °F 30.23 in WSW 13.0 mph 20.0 mph 69% 0.00 in
13:14 16.9 °F 8.8 °F 30.24 in SW 11.0 mph 20.0 mph 70% 0.00 in
13:19 16.8 °F 8.4 °F 30.23 in SW 12.0 mph 19.0 mph 69% 0.00 in
13:24 16.2 °F 7.8 °F 30.23 in WSW 10.0 mph 23.0 mph 69% 0.00 in
13:29 15.7 °F 7.6 °F 30.23 in WSW 10.0 mph 23.0 mph 70% 0.00 in
13:34 15.5 °F 7.5 °F 30.23 in WSW 10.0 mph 22.0 mph 70% 0.00 in
13:39 16.0 °F 8.6 °F 30.23 in WSW 10.0 mph 15.0 mph 72% 0.00 in
13:44 16.0 °F 7.9 °F 30.23 in West 13.0 mph 21.0 mph 70% 0.00 in
13:49 15.5 °F 7.5 °F 30.23 in SW 10.0 mph 22.0 mph 70% 0.00 in
13:54 15.8 °F 8.4 °F 30.23 in SW 10.0 mph 22.0 mph 72% 0.00 in
13:59 15.5 °F 8.1 °F 30.22 in SW 9.0 mph 18.0 mph 72% 0.00 in
14:04 15.5 °F 8.4 °F 30.22 in WSW 10.0 mph 18.0 mph 73% 0.00 in
14:09 15.7 °F 8.3 °F 30.22 in WSW 9.0 mph 18.0 mph 72% 0.00 in
14:14 15.5 °F 8.1 °F 30.23 in West 4.0 mph 22.0 mph 72% 0.00 in
14:19 15.7 °F 8.3 °F 30.23 in SW 8.0 mph 16.0 mph 72% 0.00 in
14:24 15.8 °F 8.1 °F 30.23 in WSW 10.0 mph 19.0 mph 71% 0.00 in
14:29 16.0 °F 8.3 °F 30.23 in SW 10.0 mph 20.0 mph 71% 0.00 in
14:34 16.1 °F 8.7 °F 30.22 in WSW 9.0 mph 20.0 mph 72% 0.00 in
14:39 16.2 °F 8.8 °F 30.22 in SW 8.0 mph 17.0 mph 72% 0.00 in
14:44 16.6 °F 9.1 °F 30.22 in SW 9.0 mph 15.0 mph 72% 0.00 in
14:49 16.5 °F 8.7 °F 30.22 in WSW 8.0 mph 21.0 mph 71% 0.00 in
14:54 16.6 °F 9.1 °F 30.22 in SW 9.0 mph 21.0 mph 72% 0.00 in
14:59 16.3 °F 8.5 °F 30.22 in WSW 10.0 mph 19.0 mph 71% 0.00 in
15:04 16.4 °F 8.6 °F 30.22 in SSW 6.0 mph 16.0 mph 71% 0.00 in
15:09 16.4 °F 8.3 °F 30.21 in SW 16.0 mph 19.0 mph 70% 0.00 in
15:14 16.2 °F 8.1 °F 30.22 in WSW 10.0 mph 19.0 mph 70% 0.00 in
15:20 16.2 °F 8.1 °F 30.22 in West 9.0 mph 20.0 mph 70% 0.00 in
15:25 16.1 °F 8.0 °F 30.22 in WSW 6.0 mph 19.0 mph 70% 0.00 in
15:34 16.1 °F 8.3 °F 30.23 in WSW 9.0 mph 19.0 mph 71% 0.00 in
15:39 16.2 °F 8.4 °F 30.23 in WSW 9.0 mph 19.0 mph 71% 0.00 in
15:44 16.3 °F 8.2 °F 30.23 in WSW 8.0 mph 16.0 mph 70% 0.00 in
15:50 16.3 °F 8.2 °F 30.23 in SW 7.0 mph 16.0 mph 70% 0.00 in
15:55 16.2 °F 8.1 °F 30.23 in SW 8.0 mph 18.0 mph 70% 0.00 in
16:00 16.1 °F 8.0 °F 30.24 in WSW 13.0 mph 20.0 mph 70% 0.00 in
16:04 16.3 °F 8.5 °F 30.24 in SW 8.0 mph 20.0 mph 71% 0.00 in
16:14 16.3 °F 8.2 °F 30.24 in SW 10.0 mph 20.0 mph 70% 0.00 in
16:19 16.2 °F 8.4 °F 30.23 in WSW 17.0 mph 18.0 mph 71% 0.00 in
16:24 16.2 °F 8.4 °F 30.23 in SW 14.0 mph 18.0 mph 71% 0.00 in
16:29 16.3 °F 8.9 °F 30.24 in WSW 6.0 mph 16.0 mph 72% 0.00 in
16:34 16.2 °F 8.8 °F 30.23 in WSW 10.0 mph 14.0 mph 72% 0.00 in
16:39 16.2 °F 8.8 °F 30.23 in SW 10.0 mph 17.0 mph 72% 0.00 in
16:44 16.1 °F 9.0 °F 30.24 in SW 10.0 mph 22.0 mph 73% 0.00 in
16:49 16.2 °F 8.8 °F 30.24 in SW 10.0 mph 22.0 mph 72% 0.00 in
16:54 16.3 °F 8.9 °F 30.24 in SW 11.0 mph 21.0 mph 72% 0.00 in
16:59 16.4 °F 8.9 °F 30.24 in SW 4.0 mph 17.0 mph 72% 0.00 in
17:04 16.4 °F 8.9 °F 30.24 in SW 8.0 mph 19.0 mph 72% 0.00 in
17:09 16.4 °F 8.9 °F 30.24 in SW 8.0 mph 19.0 mph 72% 0.00 in
17:14 16.4 °F 8.9 °F 30.23 in South 8.0 mph 20.0 mph 72% 0.00 in
17:19 16.4 °F 8.9 °F 30.23 in WSW 10.0 mph 20.0 mph 72% 0.00 in
17:24 16.4 °F 8.9 °F 30.23 in SW 10.0 mph 20.0 mph 72% 0.00 in
17:29 16.3 °F 8.9 °F 30.22 in WSW 7.0 mph 17.0 mph 72% 0.00 in
17:34 16.4 °F 8.9 °F 30.23 in WSW 5.0 mph 16.0 mph 72% 0.00 in
17:39 16.3 °F 8.9 °F 30.23 in SW 8.0 mph 16.0 mph 72% 0.00 in
17:44 16.3 °F 8.9 °F 30.22 in WSW 8.0 mph 16.0 mph 72% 0.00 in
17:49 16.2 °F 8.8 °F 30.23 in WSW 8.0 mph 16.0 mph 72% 0.00 in
17:54 16.2 °F 8.8 °F 30.23 in WSW 7.0 mph 13.0 mph 72% 0.00 in
17:59 16.2 °F 9.1 °F 30.23 in WSW 7.0 mph 12.0 mph 73% 0.00 in
18:04 16.3 °F 9.2 °F 30.24 in WSW 12.0 mph 15.0 mph 73% 0.00 in
18:09 16.3 °F 9.2 °F 30.24 in SSW 9.0 mph 18.0 mph 73% 0.00 in
18:14 16.3 °F 9.2 °F 30.24 in WSW 8.0 mph 18.0 mph 73% 0.00 in
18:19 16.3 °F 9.5 °F 30.25 in WSW 7.0 mph 14.0 mph 74% 0.00 in
18:24 16.3 °F 9.5 °F 30.25 in WSW 8.0 mph 14.0 mph 74% 0.00 in
18:29 16.3 °F 9.5 °F 30.25 in WSW 6.0 mph 14.0 mph 74% 0.00 in
18:34 16.3 °F 9.5 °F 30.24 in WSW 7.0 mph 12.0 mph 74% 0.00 in
18:39 16.3 °F 9.5 °F 30.24 in SW 9.0 mph 14.0 mph 74% 0.00 in
18:44 16.4 °F 9.9 °F 30.24 in SW 7.0 mph 14.0 mph 75% 0.00 in
18:49 16.3 °F 9.8 °F 30.24 in SW 6.0 mph 14.0 mph 75% 0.00 in
18:54 16.3 °F 9.8 °F 30.24 in SW 6.0 mph 14.0 mph 75% 0.00 in
18:59 16.4 °F 10.2 °F 30.25 in SW 6.0 mph 12.0 mph 76% 0.00 in
19:04 16.4 °F 10.2 °F 30.25 in SW 6.0 mph 11.0 mph 76% 0.00 in
19:09 16.6 °F 10.3 °F 30.25 in WSW 4.0 mph 12.0 mph 76% 0.00 in
19:14 16.7 °F 10.7 °F 30.25 in WSW 7.0 mph 9.0 mph 77% 0.00 in
19:19 16.7 °F 10.7 °F 30.25 in WSW 5.0 mph 10.0 mph 77% 0.00 in
19:24 16.8 °F 10.8 °F 30.25 in SW 5.0 mph 10.0 mph 77% 0.00 in
19:29 16.9 °F 10.9 °F 30.25 in SW 5.0 mph 9.0 mph 77% 0.00 in
19:34 17.0 °F 11.0 °F 30.25 in SW 6.0 mph 12.0 mph 77% 0.00 in
19:39 17.0 °F 11.0 °F 30.25 in SSW 5.0 mph 11.0 mph 77% 0.00 in
19:44 17.0 °F 11.0 °F 30.25 in West 5.0 mph 11.0 mph 77% 0.00 in
19:49 17.0 °F 11.0 °F 30.25 in SW 6.0 mph 13.0 mph 77% 0.00 in
19:54 17.0 °F 11.0 °F 30.25 in SW 6.0 mph 13.0 mph 77% 0.00 in
19:59 17.0 °F 11.0 °F 30.25 in SW 6.0 mph 12.0 mph 77% 0.00 in
20:04 17.0 °F 11.0 °F 30.25 in SW 5.0 mph 10.0 mph 77% 0.00 in
20:09 17.1 °F 11.1 °F 30.25 in SW 5.0 mph 10.0 mph 77% 0.00 in
20:14 17.2 °F 11.2 °F 30.25 in SW 5.0 mph 9.0 mph 77% 0.00 in
20:19 17.2 °F 11.2 °F 30.25 in SW 6.0 mph 10.0 mph 77% 0.00 in
20:24 17.2 °F 11.2 °F 30.25 in SW 7.0 mph 10.0 mph 77% 0.00 in
20:29 17.3 °F 11.3 °F 30.25 in SW 8.0 mph 9.0 mph 77% 0.00 in
20:34 17.3 °F 11.3 °F 30.25 in South 5.0 mph 11.0 mph 77% 0.00 in
20:39 17.3 °F 11.3 °F 30.25 in SSW 7.0 mph 9.0 mph 77% 0.00 in
20:44 17.4 °F 11.4 °F 30.25 in SW 7.0 mph 11.0 mph 77% 0.00 in
20:49 17.4 °F 11.4 °F 30.25 in SW 5.0 mph 10.0 mph 77% 0.00 in
20:54 17.5 °F 11.5 °F 30.24 in SW 5.0 mph 10.0 mph 77% 0.00 in
20:59 17.5 °F 11.5 °F 30.24 in SSW 4.0 mph 9.0 mph 77% 0.00 in
21:04 17.5 °F 11.5 °F 30.24 in SSW 4.0 mph 9.0 mph 77% 0.00 in
21:09 17.5 °F 11.8 °F 30.24 in SSW 4.0 mph 9.0 mph 78% 0.00 in
21:14 17.5 °F 11.8 °F 30.24 in SW 4.0 mph 8.0 mph 78% 0.00 in
21:19 17.4 °F 11.7 °F 30.24 in SSW 4.0 mph 7.0 mph 78% 0.00 in
21:24 17.3 °F 11.6 °F 30.24 in SSW 4.0 mph 8.0 mph 78% 0.00 in
21:29 17.3 °F 11.6 °F 30.24 in SSW 3.0 mph 7.0 mph 78% 0.00 in
21:34 17.2 °F 11.5 °F 30.24 in SSW 4.0 mph 7.0 mph 78% 0.00 in
21:39 17.1 °F 11.4 °F 30.24 in SW 2.0 mph 7.0 mph 78% 0.00 in
21:44 17.2 °F 11.5 °F 30.24 in SSW 3.0 mph 7.0 mph 78% 0.00 in
21:49 17.1 °F 11.4 °F 30.24 in SW 2.0 mph 10.0 mph 78% 0.00 in
21:54 17.1 °F 11.4 °F 30.23 in SSW 2.0 mph 7.0 mph 78% 0.00 in
21:59 17.0 °F 11.3 °F 30.24 in SW 2.0 mph 7.0 mph 78% 0.00 in
22:04 17.1 °F 11.4 °F 30.24 in SW 3.0 mph 7.0 mph 78% 0.00 in
22:09 17.2 °F 11.5 °F 30.24 in SW 2.0 mph 6.0 mph 78% 0.00 in
22:14 17.2 °F 11.5 °F 30.24 in SW 3.0 mph 5.0 mph 78% 0.00 in
22:19 17.2 °F 11.5 °F 30.24 in SW 3.0 mph 5.0 mph 78% 0.00 in
22:24 17.2 °F 11.5 °F 30.24 in SW 2.0 mph 5.0 mph 78% 0.00 in
22:29 17.3 °F 11.6 °F 30.24 in SW 3.0 mph 5.0 mph 78% 0.00 in
22:34 17.2 °F 11.5 °F 30.24 in SW 3.0 mph 6.0 mph 78% 0.00 in
22:39 17.3 °F 11.6 °F 30.24 in WSW 4.0 mph 6.0 mph 78% 0.00 in
22:44 17.4 °F 11.4 °F 30.23 in WSW 4.0 mph 5.0 mph 77% 0.00 in
22:49 17.5 °F 11.5 °F 30.23 in WSW 4.0 mph 6.0 mph 77% 0.00 in
22:54 17.5 °F 11.2 °F 30.23 in SW 3.0 mph 9.0 mph 76% 0.00 in
22:59 17.6 °F 11.3 °F 30.23 in SW 3.0 mph 7.0 mph 76% 0.00 in
23:04 17.6 °F 11.0 °F 30.23 in SW 3.0 mph 6.0 mph 75% 0.00 in
23:09 17.7 °F 11.1 °F 30.23 in SW 3.0 mph 9.0 mph 75% 0.00 in
23:14 17.8 °F 10.9 °F 30.23 in SW 3.0 mph 9.0 mph 74% 0.00 in
23:19 18.0 °F 11.1 °F 30.23 in SW 3.0 mph 9.0 mph 74% 0.00 in
23:24 18.1 °F 10.9 °F 30.24 in SW 3.0 mph 10.0 mph 73% 0.00 in
23:29 18.2 °F 11.0 °F 30.24 in SW 5.0 mph 11.0 mph 73% 0.00 in
23:34 18.3 °F 11.1 °F 30.24 in SW 10.0 mph 11.0 mph 73% 0.00 in
23:39 18.4 °F 11.5 °F 30.23 in SW 4.0 mph 12.0 mph 74% 0.00 in
23:44 18.4 °F 11.8 °F 30.23 in SW 4.0 mph 12.0 mph 75% 0.00 in
23:49 18.3 °F 11.7 °F 30.23 in SW 4.0 mph 11.0 mph 75% 0.00 in
23:54 18.3 °F 12.3 °F 30.24 in SW 8.0 mph 12.0 mph 77% 0.00 in
23:59 18.2 °F 12.5 °F 30.24 in SW 4.0 mph 8.0 mph 78% 0.00 in
Buffalo, New York, USA
Compliments of Weather Underground - 2.5 mb